Cfl Performer — PHLY — position and weather

sailwx.info

Track history (hours):
 
Tides and Currents Weather Stations Pressure Air Temp Water Temp Dewpoint Dewpoint Depression Visibility Wind Speed Wind Dir Waves Ship Positions

Cfl Performer

Last reported at 2015-Feb-23 16:05 UTC. Time now 2015-Feb-28 00:44 UTC.
Position N 36°38' W 008°02'.

Length 117 m; draft 6.4 m.

Type: Cargo ship. MMSI: 244989000.

Date/timePositionNaut miles runAvg speedWind from/ knotsBaromVisibWave heightAir tempDewpointWater temp
2015-Feb-23 16:05N 36°38' W 008°02'97 7.7
2015-Feb-23 03:33N 37°28' W 009°45'1210.6
2015-Feb-23 02:25N 37°39' W 009°49'4010.2
2015-Feb-22 22:30N 38°18' W 009°60'1010.5
2015-Feb-22 21:33N 38°28' W 010°01'1110.5
2015-Feb-22 20:33N 38°39' W 010°04'1110.2
2015-Feb-22 19:31N 38°49' W 010°06'1210.2
2015-Feb-22 18:20N 39°01' W 010°07'  
2015-Feb-18 19:33N 50°30' W 000°00'9 8.3
2015-Feb-18 18:29N 50°34' E 000°12'9 9.6
2015-Feb-18 17:33N 50°37' E 000°25'1110.7
2015-Feb-18 16:33N 50°41' E 000°40'1110.8
2015-Feb-18 15:33N 50°47' E 000°55'1010.0
2015-Feb-18 14:32N 50°53' E 001°08'9 9.1
2015-Feb-18 13:33N 50°59' E 001°18'8 7.6
2015-Feb-18 12:33N 51°04' E 001°27'6 6.4
2015-Feb-18 11:33N 51°08' E 001°35'7 6.9
2015-Feb-18 10:33N 51°13' E 001°43'9 8.9
2015-Feb-18 09:33N 51°20' E 001°50'1111.2
2015-Feb-18 08:34N 51°30' E 002°00'1212.0
2015-Feb-18 07:33N 51°39' E 002°13'1211.8
2015-Feb-18 06:33N 51°47' E 002°26'1211.0
2015-Feb-18 05:26N 51°56' E 002°40'44 9.0
2015-Feb-18 00:33N 52°31' E 003°24'13 9.5
2015-Feb-17 23:13N 52°41' E 003°36'3210.6
2015-Feb-17 20:12N 53°05' E 004°12'710.4
2015-Feb-17 19:29N 53°10' E 004°21'19 9.8
2015-Feb-17 17:32N 53°28' E 004°34'10 9.2
2015-Feb-17 16:29N 53°37' E 004°39'13 9.6
2015-Feb-17 15:08N 53°49' E 004°46'610.0
2015-Feb-17 14:30N 53°55' E 004°48'1010.4
2015-Feb-17 13:33N 54°05' E 004°53'1110.4
2015-Feb-17 12:31N 54°14' E 005°01'194 9.6
2015-Feb-16 16:19N 57°01' E 007°58'137 8.6
2015-Feb-16 00:30N 59°07' E 009°37'0 0.1
2015-Feb-15 21:14N 59°07' E 009°37'0 0.0
2015-Feb-15 09:26N 59°07' E 009°37'  
Track history (hours):
 
Tides and Currents Weather Stations Pressure Air Temp Water Temp Dewpoint Dewpoint Depression Visibility Wind Speed Wind Dir Waves Ship Positions

Cfl Performer

Last reported at 2015-Feb-23 16:05 UTC. Time now 2015-Feb-28 00:44 UTC.
Position N 36°38' W 008°02'.

Length 117 m; draft 6.4 m.

Type: Cargo ship. MMSI: 244989000.

Date/timePositionNaut miles runAvg speedWind from/ knotsBaromVisibWave heightAir tempDewpointWater temp
2015-Feb-23 16:05N 36°38' W 008°02'97 7.7
2015-Feb-23 03:33N 37°28' W 009°45'1210.6
2015-Feb-23 02:25N 37°39' W 009°49'4010.2
2015-Feb-22 22:30N 38°18' W 009°60'1010.5
2015-Feb-22 21:33N 38°28' W 010°01'1110.5
2015-Feb-22 20:33N 38°39' W 010°04'1110.2
2015-Feb-22 19:31N 38°49' W 010°06'1210.2
2015-Feb-22 18:20N 39°01' W 010°07'  
2015-Feb-18 19:33N 50°30' W 000°00'9 8.3
2015-Feb-18 18:29N 50°34' E 000°12'9 9.6
2015-Feb-18 17:33N 50°37' E 000°25'1110.7
2015-Feb-18 16:33N 50°41' E 000°40'1110.8
2015-Feb-18 15:33N 50°47' E 000°55'1010.0
2015-Feb-18 14:32N 50°53' E 001°08'9 9.1
2015-Feb-18 13:33N 50°59' E 001°18'8 7.6
2015-Feb-18 12:33N 51°04' E 001°27'6 6.4
2015-Feb-18 11:33N 51°08' E 001°35'7 6.9
2015-Feb-18 10:33N 51°13' E 001°43'9 8.9
2015-Feb-18 09:33N 51°20' E 001°50'1111.2
2015-Feb-18 08:34N 51°30' E 002°00'1212.0
2015-Feb-18 07:33N 51°39' E 002°13'1211.8
2015-Feb-18 06:33N 51°47' E 002°26'1211.0
2015-Feb-18 05:26N 51°56' E 002°40'44 9.0
2015-Feb-18 00:33N 52°31' E 003°24'13 9.5
2015-Feb-17 23:13N 52°41' E 003°36'3210.6
2015-Feb-17 20:12N 53°05' E 004°12'710.4
2015-Feb-17 19:29N 53°10' E 004°21'19 9.8
2015-Feb-17 17:32N 53°28' E 004°34'10 9.2
2015-Feb-17 16:29N 53°37' E 004°39'13 9.6
2015-Feb-17 15:08N 53°49' E 004°46'610.0
2015-Feb-17 14:30N 53°55' E 004°48'1010.4
2015-Feb-17 13:33N 54°05' E 004°53'1110.4
2015-Feb-17 12:31N 54°14' E 005°01'194 9.6
2015-Feb-16 16:19N 57°01' E 007°58'137 8.6
2015-Feb-16 00:30N 59°07' E 009°37'0 0.1
2015-Feb-15 21:14N 59°07' E 009°37'0 0.0
2015-Feb-15 09:26N 59°07' E 009°37'  

Dump ship's entire track history